Mission Trails (636, 639) Station Data

Red Flag Warning: No
Fire Weather Zone: 250
SDGE Region: Beach Cities
Lat/Lon: 32.842/-117.056

Observations

Time Wind Speed/Gust Temp(F) RH Fuel Moist Fuel Temp(F) Dewpt(F) Tmax(F) Tmin(F) Accum Precip 10-min Precip SL Press(mb)
5/24 8:20am 227 2 G 6 58° 100% - - 58° 58.5° 56° - - 1013.0
5/24 8:10am 228 5 G 8 58° 100% - - 58° 58.5° 56° - - 1013.0
5/24 8:00am 79 2 G 6 58° 100% - - 58° 58.5° 56° - - 1012.0
5/24 7:50am 75 2 G 6 58° 100% - - 58° 58.4° 56° - - 1012.0
5/24 7:40am 79 3 G 6 57° 100% - - 57° 57.9° 56° - - 1012.0
5/24 7:30am 58 8 G 11 57° 100% - - 57° 57.9° 56° - - 1012.0
5/24 7:20am 66 6 G 9 57° 100% - - 57° 57.9° 56° - - 1012.0
5/24 7:10am 64 3 G 6 57° 100% - - 57° 57.9° 56° - - 1012.0
5/24 7:00am 249 2 G 5 57° 100% - - 57° 57.9° 56° - - 1012.0
5/24 6:50am 225 3 G 6 57° 100% - - 57° 57.9° 56° - - 1012.0
5/24 6:40am 251 2 G 4 57° 100% - - 57° 57.9° 56° - - 1012.0
5/24 6:30am 271 4 G 8 57° 100% - - 57° 57.9° 56° - - 1012.0
5/24 6:20am 229 8 G 12 57° 100% - - 57° 57.9° 56° - - 1012.0
5/24 6:10am 230 9 G 13 57° 100% - - 57° 57.9° 56° - - 1012.0
5/24 6:00am 233 7 G 10 57° 100% - - 57° 57.9° 56° - - 1012.0
5/24 5:50am 232 7 G 11 57° 100% - - 57° 57.9° 56° - - 1011.0
5/24 5:40am 241 7 G 10 57° 100% - - 57° 57.9° 56° - - 1011.0
5/24 5:30am 235 5 G 10 57° 100% - - 57° 57.9° 56° - - 1011.0
5/24 5:20am 172 2 G 4 57° 100% - - 57° 57.9° 56° - - 1011.0
5/24 5:10am 57 6 G 10 57° 100% - - 57° 57.9° 56° - - 1011.0
5/24 5:00am 50 11 G 13 57° 100% - - 57° 57.9° 56° - - 1011.0
5/24 4:50am 54 12 G 14 57° 100% - - 57° 57.9° 56° - - 1011.0
5/24 4:40am 56 13 G 15 57° 100% - - 57° 57.9° 56° - - 1011.0
5/24 4:30am 52 13 G 16 57° 100% - - 57° 57.9° 56° - - 1011.0
5/24 4:20am 50 11 G 15 57° 100% - - 57° 57.9° 56° - - 1012.0
5/24 4:10am 76 5 G 9 57° 100% - - 57° 57.9° 56° - - 1012.0
5/24 4:00am 67 4 G 6 57° 100% - - 57° 57.9° 56° - - 1012.0
5/24 3:50am 122 1 G 3 57° 100% - - 57° 57.9° 56° - - 1013.0
5/24 3:40am 161 0 G 1 57° 100% - - 57° 57.9° 56° - - 1013.0
5/24 3:30am 212 1 G 4 57° 100% - - 57° 57.7° 56° - - 1013.0
5/24 3:20am 229 3 G 5 57° 100% - - 57° 57.7° 56° - - 1013.0
5/24 3:10am 242 4 G 6 57° 100% - - 57° 57.7° 56° - - 1013.0
5/24 3:00am 235 5 G 9 57° 100% - - 57° 57.5° 56° - - 1013.0
5/24 2:50am 224 7 G 10 57° 100% - - 56° 57.3° 56° - - 1012.0
5/24 2:40am 278 2 G 4 56° 100% - - 56° 57.3° 56° - - 1012.0
5/24 2:30am 320 2 G 4 57° 100% - - 57° 57.3° 56° - - 1012.0
5/24 2:20am 267 4 G 6 57° 100% - - 57° 57.3° 56.1° - - 1012.0
5/24 2:10am 260 4 G 7 57° 100% - - 57° 57.3° 56.1° - - 1012.0
5/24 2:00am 258 5 G 7 57° 100% - - 57° 57.3° 56.1° - - 1013.0
5/24 1:50am 257 3 G 5 57° 100% - - 56° 57.3° 56.1° - - 1013.0
5/24 1:40am 247 3 G 5 57° 100% - - 56° 57.3° 56.1° - - 1013.0
5/24 1:30am 273 4 G 5 57° 100% - - 56° 57.3° 56.1° - - 1013.0
5/24 1:20am 242 3 G 5 57° 100% - - 57° 57.3° 56.1° - - 1013.0
5/24 1:10am 248 3 G 4 57° 99% - - 57° 57.3° 56.1° - - 1013.0
5/24 1:00am 245 2 G 4 57° 99% - - 57° 57.3° 56.1° - - 1013.0
5/24 12:50am 235 2 G 4 57° 99% - - 57° 57.3° 56.1° - - 1013.0
5/24 12:40am 238 2 G 5 57° 99% - - 56° 57.3° 56.1° - - 1014.0
5/24 12:30am 34 2 G 4 57° 99% - - 56° 57.3° 56.1° - - 1013.0
5/24 12:20am 272 2 G 4 57° 99% - - 57° 57.3° 56.3° - - 1014.0
5/24 12:10am 250 3 G 5 57° 99% - - 57° 57.3° 56.3° - - 1014.0
5/24 12:00am 248 4 G 6 57° 99% - - 57° 81.3° 54.1° - - 1014.0
5/23 11:50pm 239 3 G 6 57° 99% - - 57° 81.3° 54.1° - - 1014.0
5/23 11:40pm 250 4 G 8 57° 99% - - 57° 81.3° 54.1° - - 1014.0
5/23 11:30pm 248 5 G 8 57° 98% - - 57° 81.3° 54.1° - - 1014.0
5/23 11:20pm 236 6 G 8 58° 98% - - 57° 81.3° 54.1° - - 1014.0
5/23 11:10pm 230 4 G 7 58° 97% - - 58° 81.3° 54.1° - - 1014.0
5/23 11:00pm 240 5 G 8 58° 96% - - 57° 81.3° 54.1° - - 1013.0
5/23 10:50pm 233 4 G 6 60° 92% - - 57° 81.3° 54.1° - - 1013.0
5/23 10:40pm 251 4 G 6 60° 92% - - 58° 81.3° 54.1° - - 1013.0
5/23 10:30pm 236 4 G 6 61° 88% - - 57° 81.3° 54.1° - - 1013.0
5/23 10:20pm 247 3 G 5 62° 86% - - 58° 81.3° 54.1° - - 1013.0
5/23 10:10pm 243 2 G 3 62° 86% - - 58° 81.3° 54.1° - - 1013.0
5/23 10:00pm 277 1 G 2 63° 84% - - 58° 81.3° 54.1° - - 1013.0
5/23 9:50pm 239 2 G 4 62° 86% - - 58° 81.3° 54.1° - - 1013.0
5/23 9:40pm 235 3 G 5 62° 85% - - 57° 81.3° 54.1° - - 1013.0
5/23 9:30pm 237 4 G 6 63° 82% - - 57° 81.3° 54.1° - - 1013.0
5/23 9:20pm 246 3 G 5 64° 78% - - 57° 81.3° 54.1° - - 1013.0
5/23 9:10pm 240 3 G 4 64° 78% - - 57° 81.3° 54.1° - - 1013.0
5/23 9:00pm 241 3 G 5 65° 76% - - 57° 81.3° 54.1° - - 1013.0
5/23 8:50pm 255 5 G 7 65° 77% - - 57° 81.3° 54.1° - - 1013.0
5/23 8:40pm 245 4 G 6 65° 76% - - 57° 81.3° 54.1° - - 1013.0
5/23 8:30pm 242 3 G 6 66° 75% - - 57° 81.3° 54.1° - - 1013.0
5/23 8:20pm 248 3 G 4 66° 73% - - 57° 81.3° 54.1° - - 1013.0
5/23 8:10pm 245 3 G 5 65° 75% - - 57° 81.3° 54.1° - - 1013.0
5/23 8:00pm 235 2 G 6 67° 71% - - 57° 81.3° 54.1° - - 1013.0
5/23 7:50pm 265 4 G 6 67° 69% - - 57° 81.3° 54.1° - - 1013.0
5/23 7:40pm 263 4 G 6 67° 71% - - 57° 81.3° 54.1° - - 1013.0
5/23 7:30pm 242 5 G 7 68° 70% - - 58° 81.3° 54.1° - - 1012.0
5/23 7:20pm 256 4 G 6 68° 68% - - 58° 81.3° 54.1° - - 1012.0
5/23 7:10pm 239 5 G 8 69° 67% - - 57° 81.3° 54.1° - - 1012.0
5/23 7:00pm 247 5 G 9 69° 66% - - 58° 81.3° 54.1° - - 1012.0
5/23 6:50pm 252 7 G 11 70° 65% - - 58° 81.3° 54.1° - - 1012.0
5/23 6:40pm 253 7 G 11 71° 63% - - 57° 81.3° 54.1° - - 1012.0
5/23 6:30pm 248 7 G 12 71° 61% - - 57° 81.3° 54.1° - - 1012.0
5/23 6:20pm 252 8 G 12 72° 60% - - 57° 81.3° 54.1° - - 1012.0
5/23 6:10pm 246 9 G 16 72° 59% - - 57° 81.3° 54.1° - - 1012.0
5/23 6:00pm 248 9 G 13 74° 57% - - 57° 81.3° 54.1° - - 1012.0
5/23 5:50pm 254 8 G 12 74° 56% - - 58° 81.3° 54.1° - - 1012.0
5/23 5:40pm 257 8 G 13 74° 55% - - 57° 81.3° 54.1° - - 1012.0
5/23 5:30pm 252 9 G 15 76° 53% - - 58° 81.3° 54.1° - - 1012.0
5/23 5:20pm 228 11 G 15 77° 50% - - 57° 81.3° 54.1° - - 1012.0
5/23 5:10pm 238 7 G 14 80° 41% - - 55° 81.3° 54.1° - - 1012.0
5/23 5:00pm 240 7 G 11 80° 41% - - 55° 81.3° 54.1° - - 1012.0
5/23 4:50pm 252 5 G 9 81° 41% - - 55° 81.3° 54.1° - - 1012.0
5/23 4:40pm 256 6 G 9 80° 41% - - 55° 81° 54.1° - - 1012.0
5/23 4:30pm 253 5 G 10 80° 42% - - 54° 80.8° 54.1° - - 1012.0
5/23 4:20pm 270 5 G 11 79° 42% - - 54° 80.7° 54.1° - - 1012.0
5/23 4:10pm 257 5 G 10 79° 43% - - 55° 80.7° 54.1° - - 1013.0
5/23 4:00pm 245 5 G 10 79° 44% - - 55° 80.7° 54.1° - - 1013.0
5/23 3:50pm 258 5 G 10 79° 45% - - 56° 80.7° 54.1° - - 1013.0
5/23 3:40pm 263 5 G 12 78° 47% - - 56° 80.7° 54.1° - - 1013.0
5/23 3:30pm 269 5 G 10 77° 48% - - 56° 80.7° 54.1° - - 1013.0
5/23 3:20pm 259 5 G 9 77° 49% - - 57° 80.7° 54.1° - - 1013.0
5/23 3:10pm 303 3 G 8 76° 53% - - 58° 80.7° 54.1° - - 1013.0
5/23 3:00pm 297 3 G 6 73° 57% - - 57° 80.7° 54.1° - - 1013.0
5/23 2:50pm 294 4 G 10 72° 61% - - 58° 80.7° 54.1° - - 1014.0
5/23 2:40pm 267 4 G 8 71° 64% - - 58° 80.7° 54.1° - - 1014.0
5/23 2:30pm 272 6 G 11 71° 65% - - 59° 80.7° 54.1° - - 1014.0
5/23 2:20pm 271 6 G 12 69° 69% - - 59° 80.7° 54.1° - - 1014.0
5/23 2:10pm 265 7 G 15 69° 70% - - 59° 80.7° 54.1° - - 1014.0
5/23 2:00pm 273 8 G 14 70° 68% - - 59° 80.7° 54.1° - - 1014.0
5/23 1:50pm 268 6 G 13 70° 68% - - 59° 80.7° 54.1° - - 1014.0
5/23 1:40pm 271 7 G 14 68° 72% - - 58° 80.7° 54.1° - - 1014.0
5/23 1:30pm 279 8 G 13 68° 72% - - 59° 80.7° 54.1° - - 1014.0
5/23 1:20pm 251 7 G 13 69° 71% - - 59° 80.7° 54.1° - - 1014.0
5/23 1:10pm 270 9 G 14 68° 74% - - 59° 80.7° 54.1° - - 1014.0
5/23 1:00pm 262 11 G 17 68° 72% - - 59° 80.7° 54.1° - - 1014.0
5/23 12:50pm 274 9 G 16 68° 72% - - 59° 80.7° 54.1° - - 1014.0
5/23 12:40pm 269 10 G 16 68° 72% - - 59° 80.7° 54.1° - - 1014.0
5/23 12:30pm 258 10 G 16 68° 72% - - 59° 80.7° 54.1° - - 1014.0
5/23 12:20pm 267 11 G 19 69° 71% - - 59° 80.7° 54.1° - - 1014.0
5/23 12:10pm 257 10 G 18 70° 69% - - 59° 80.7° 54.1° - - 1014.0
5/23 12:00pm 257 11 G 18 71° 68% - - 59° 80.7° 54.1° - - 1014.0
5/23 11:50am 260 11 G 18 71° 67% - - 60° 80.7° 54.1° - - 1014.0
5/23 11:40am 266 12 G 18 71° 68% - - 60° 80.7° 54.1° - - 1014.0
5/23 11:30am 245 12 G 18 73° 64% - - 60° 80.7° 54.1° - - 1013.0
5/23 11:20am 225 16 G 19 73° 63% - - 60° 80.7° 54.1° - - 1013.0
5/23 11:10am 225 13 G 20 76° 58% - - 60° 80.7° 54.1° - - 1013.0
5/23 11:00am 224 14 G 20 76° 58% - - 60° 80.7° 54.1° - - 1013.0
5/23 10:50am 219 13 G 19 78° 52% - - 59° 80.7° 54.1° - - 1013.0
5/23 10:40am 213 11 G 18 77° 52% - - 58° 80.7° 54.1° - - 1013.0
5/23 10:30am 211 8 G 13 77° 53% - - 59° 80.7° 54.1° - - 1013.0
5/23 10:20am 215 7 G 12 79° 46% - - 56° 80.7° 54.1° - - 1013.0
5/23 10:10am 212 4 G 7 79° 41% - - 54° 80.7° 54.1° - - 1013.0
5/23 10:00am 256 1 G 4 79° 41% - - 53° 80.6° 54.1° - - 1013.0
5/23 9:50am 157 1 G 4 77° 41% - - 52° 78° 54.1° - - 1013.0
5/23 9:40am 136 2 G 5 74° 50% - - 54° 76.4° 54.1° - - 1013.0
5/23 9:30am 49 6 G 10 71° 61% - - 56° 72.1° 54.1° - - 1013.0
5/23 9:20am 54 8 G 9 69° 61% - - 55° 70.1° 54.1° - - 1013.0
5/23 9:10am 57 8 G 9 68° 65% - - 55° 68.5° 54.1° - - 1014.0
5/23 9:00am 51 6 G 8 67° 74% - - 59° 67.8° 54.1° - - 1014.0
5/23 8:50am 33 4 G 6 65° 85% - - 61° 66.9° 54.1° - - 1014.0
5/23 8:40am 16 2 G 5 63° 94% - - 61° 64.7° 54.1° - - 1014.0
5/23 8:30am 33 4 G 7 60° 99% - - 60° 61.8° 54.1° - - 1014.0
5/23 8:20am 52 7 G 10 59° 100% - - 59° 60.1° 54.1° - - 1014.0
5/23 8:10am 52 9 G 10 59° 100% - - 59° 59.2° 54.1° - - 1014.0
5/23 8:00am 41 7 G 9 58° 100% - - 58° 58.8° 54.1° - - 1014.0
5/23 7:50am 45 6 G 8 57° 100% - - 57° 58.2° 54.1° - - 1014.0
5/23 7:40am 49 7 G 8 57° 100% - - 57° 58° 54.1° - - 1014.0
5/23 7:30am 44 3 G 7 57° 100% - - 57° 58° 54.1° - - 1014.0
5/23 7:20am 173 0 G 1 56° 100% - - 56° 57.8° 54.1° - - 1015.0
5/23 7:10am 189 2 G 3 56° 100% - - 56° 57.8° 54.1° - - 1015.0
5/23 7:00am 223 2 G 3 56° 100% - - 56° 57.8° 54.1° - - 1014.0
5/23 6:50am 50 2 G 3 57° 100% - - 57° 57.8° 54.1° - - 1014.0
5/23 6:40am 175 1 G 2 56° 100% - - 56° 57.8° 54.1° - - 1014.0
5/23 6:30am 197 2 G 3 55° 100% - - 55° 57.8° 54.1° - - 1014.0
5/23 6:20am 0 0 G 0 56° 100% - - 56° 57.8° 54.1° - - 1014.0
5/23 6:10am 21 1 G 2 55° 100% - - 55° 57.8° 54.1° - - 1014.0
5/23 6:00am 216 2 G 3 54° 100% - - 54° 57.8° 54.1° - - 1014.0